createdAt,value
2023-05-19T00:03:40.829Z,5.60
2023-05-19T00:08:43.195Z,5.62
2023-05-19T00:13:49.901Z,5.60
2023-05-19T00:18:53.362Z,5.65
2023-05-19T00:23:56.196Z,5.60
2023-05-19T00:28:58.478Z,5.50
2023-05-19T00:34:00.797Z,5.35
2023-05-19T00:39:03.805Z,5.75
2023-05-19T00:44:07.215Z,5.22
2023-05-19T00:49:09.417Z,5.97
2023-05-19T00:54:11.680Z,5.80
2023-05-19T00:59:14.106Z,5.40
2023-05-19T01:04:20.237Z,6.00
2023-05-19T01:09:23.067Z,6.37
2023-05-19T01:14:25.346Z,5.87
2023-05-19T01:19:37.122Z,6.20
2023-05-19T01:24:55.081Z,6.22
2023-05-19T01:30:25.553Z,5.82
2023-05-19T01:35:29.244Z,6.12
2023-05-19T01:40:33.493Z,6.43
2023-05-19T01:45:36.930Z,6.27
2023-05-19T01:50:40.327Z,6.53
2023-05-19T01:55:49.719Z,6.12
2023-05-19T02:00:54.958Z,6.90
2023-05-19T02:06:26.118Z,6.62
2023-05-19T02:11:42.141Z,6.60
2023-05-19T02:16:48.057Z,6.55
2023-05-19T02:21:50.586Z,6.90
2023-05-19T02:26:53.817Z,6.43
2023-05-19T02:31:56.017Z,6.62
2023-05-19T02:36:58.269Z,7.00
2023-05-19T02:42:00.519Z,6.97
2023-05-19T02:47:02.693Z,7.37
2023-05-19T02:52:05.783Z,7.37
2023-05-19T02:57:08.082Z,7.50
2023-05-19T03:02:10.258Z,7.63
2023-05-19T03:07:15.690Z,8.30
2023-05-19T03:12:17.997Z,7.60
2023-05-19T03:17:20.564Z,8.10
2023-05-19T03:22:22.883Z,8.43
2023-05-19T03:27:25.108Z,7.93
2023-05-19T03:32:27.424Z,8.23
2023-05-19T03:37:29.740Z,8.38
2023-05-19T03:42:32.009Z,8.02
2023-05-19T03:47:34.247Z,7.90
2023-05-19T03:52:36.483Z,7.90
2023-05-19T03:57:38.703Z,7.62
2023-05-19T04:02:41.245Z,7.80
2023-05-19T04:07:43.644Z,7.45
2023-05-19T04:12:46.394Z,7.40
2023-05-19T04:17:49.178Z,7.47
2023-05-19T04:22:51.386Z,7.90
2023-05-19T04:27:53.921Z,7.90
2023-05-19T04:32:58.171Z,7.82
2023-05-19T04:38:01.728Z,8.25
2023-05-19T04:43:03.985Z,8.23
2023-05-19T04:48:06.669Z,9.13
2023-05-19T04:53:09.741Z,8.10
2023-05-19T04:58:11.961Z,8.40
2023-05-19T05:03:15.265Z,8.68
2023-05-19T05:08:23.113Z,9.40
2023-05-19T05:13:25.725Z,8.55
2023-05-19T05:18:28.520Z,9.25
2023-05-19T05:23:31.087Z,9.15
2023-05-19T05:28:33.362Z,9.60
2023-05-19T05:33:35.787Z,11.17
2023-05-19T05:38:38.056Z,10.05
2023-05-19T05:43:40.315Z,10.02
2023-05-19T05:48:42.934Z,10.18
2023-05-19T05:53:51.458Z,9.25
2023-05-19T05:58:53.891Z,9.20
2023-05-19T06:03:56.153Z,9.63
2023-05-19T06:08:58.453Z,9.65
2023-05-19T06:14:00.722Z,9.30
2023-05-19T06:19:03.468Z,9.43
2023-05-19T06:24:05.974Z,9.17
2023-05-19T06:29:08.126Z,9.35
2023-05-19T06:34:16.371Z,8.70
2023-05-19T06:39:18.660Z,8.50
2023-05-19T06:44:21.283Z,8.38
2023-05-19T06:49:24.100Z,8.23
2023-05-19T06:54:26.277Z,8.20
2023-05-19T06:59:28.473Z,8.43
2023-05-19T07:04:30.670Z,8.50
2023-05-19T07:09:32.838Z,8.10
2023-05-19T07:14:36.569Z,8.83
2023-05-19T07:19:39.216Z,8.90
2023-05-19T07:24:41.461Z,8.57
2023-05-19T07:29:43.606Z,7.33
2023-05-19T07:34:45.861Z,7.68
2023-05-19T07:39:48.037Z,7.90
2023-05-19T07:44:50.176Z,6.97
2023-05-19T07:49:52.311Z,8.40
2023-05-19T07:54:54.555Z,6.50
2023-05-19T07:59:56.839Z,6.85
2023-05-19T08:04:59.141Z,6.83
2023-05-19T08:10:01.433Z,7.18
2023-05-19T08:15:03.976Z,7.75
2023-05-19T08:20:08.989Z,7.50
2023-05-19T08:25:11.713Z,6.65
2023-05-19T08:30:14.193Z,6.90
2023-05-19T08:35:16.563Z,6.25
2023-05-19T08:40:19.005Z,6.32
2023-05-19T08:45:21.252Z,5.83
2023-05-19T08:50:34.616Z,5.78
2023-05-19T08:55:41.240Z,6.43
2023-05-19T09:00:44.395Z,6.87
2023-05-19T09:05:47.211Z,8.27
2023-05-19T09:10:49.522Z,7.57
2023-05-19T09:15:53.457Z,7.50
2023-05-19T09:21:00.638Z,8.17
2023-05-19T09:26:04.656Z,8.15
2023-05-19T09:31:09.275Z,8.10
2023-05-19T09:36:11.746Z,8.73
2023-05-19T09:41:15.140Z,7.65
2023-05-19T09:46:17.777Z,7.03
2023-05-19T09:51:21.467Z,7.22
2023-05-19T09:56:25.492Z,7.03
2023-05-19T10:01:27.972Z,7.50
2023-05-19T10:06:30.939Z,9.20
2023-05-19T10:11:33.577Z,10.37
2023-05-19T10:16:36.485Z,10.55
2023-05-19T10:21:39.161Z,9.52
2023-05-19T10:26:45.388Z,9.77
2023-05-19T10:31:50.652Z,9.98
2023-05-19T10:37:01.860Z,8.90
2023-05-19T10:42:24.619Z,7.28
2023-05-19T10:47:27.412Z,8.20
2023-05-19T10:52:31.059Z,8.38
2023-05-19T10:57:34.001Z,8.05
2023-05-19T11:02:43.335Z,7.40
2023-05-19T11:07:56.745Z,7.80
2023-05-19T11:12:59.014Z,8.90
2023-05-19T11:18:02.782Z,8.73
2023-05-19T11:23:10.028Z,9.75
2023-05-19T11:28:13.686Z,10.33
2023-05-19T11:33:19.594Z,10.00
2023-05-19T11:38:23.729Z,10.32
2023-05-19T11:43:26.361Z,9.80
2023-05-19T11:48:30.125Z,9.23
2023-05-19T11:53:36.329Z,8.83
2023-05-19T11:58:38.545Z,8.82
2023-05-19T12:03:41.029Z,8.93
2023-05-19T12:08:43.503Z,10.45
2023-05-19T12:13:47.029Z,10.45
2023-05-19T12:18:49.385Z,10.70
2023-05-19T12:23:51.828Z,9.88
2023-05-19T12:28:54.901Z,9.48
2023-05-19T12:33:57.243Z,10.05
2023-05-19T12:38:59.636Z,9.10
2023-05-19T12:44:01.859Z,11.47
2023-05-19T12:49:04.434Z,10.20
2023-05-19T12:54:06.808Z,10.43
2023-05-19T12:59:09.139Z,10.25
2023-05-19T13:04:11.488Z,10.00
2023-05-19T13:09:16.371Z,11.63
2023-05-19T13:14:19.223Z,12.35
2023-05-19T13:19:25.476Z,12.37
2023-05-19T13:24:28.893Z,14.87
2023-05-19T13:29:31.158Z,12.88
2023-05-19T13:34:33.363Z,12.47
2023-05-19T13:39:36.282Z,10.77
2023-05-19T13:44:38.539Z,11.02
2023-05-19T13:49:41.683Z,10.10
2023-05-19T13:54:47.578Z,10.68
2023-05-19T14:00:01.531Z,9.57
2023-05-19T14:05:05.246Z,8.98
2023-05-19T14:10:07.965Z,8.35
2023-05-19T14:15:11.534Z,9.45
2023-05-19T14:20:13.961Z,8.82
2023-05-19T14:25:16.363Z,8.60
2023-05-19T14:30:18.567Z,9.32
2023-05-19T14:35:20.885Z,10.05
2023-05-19T14:40:23.326Z,8.57
2023-05-19T14:45:25.562Z,8.27
2023-05-19T14:50:29.316Z,7.97
2023-05-19T14:55:32.022Z,8.82
2023-05-19T15:00:34.581Z,8.95
2023-05-19T15:05:37.630Z,9.13
2023-05-19T15:10:39.811Z,8.38
2023-05-19T15:15:42.100Z,9.47
2023-05-19T15:20:46.553Z,9.75
2023-05-19T15:25:49.504Z,9.15
2023-05-19T15:30:51.997Z,8.25
2023-05-19T15:35:54.436Z,18.25
2023-05-19T15:40:56.764Z,7.40
2023-05-19T15:45:59.017Z,7.18
2023-05-19T15:51:01.415Z,6.70
2023-05-19T15:56:04.827Z,5.57
2023-05-19T16:01:07.966Z,6.18
2023-05-19T16:06:10.232Z,6.00
2023-05-19T16:11:12.582Z,5.78
2023-05-19T16:16:14.953Z,5.95
2023-05-19T16:21:17.226Z,5.62
2023-05-19T16:26:19.661Z,6.05
2023-05-19T16:31:21.913Z,5.47
2023-05-19T16:36:24.222Z,5.25
2023-05-19T16:41:26.734Z,5.70
2023-05-19T16:46:30.574Z,5.97
2023-05-19T16:51:33.637Z,5.62
2023-05-19T16:56:36.139Z,4.63
2023-05-19T17:01:38.775Z,5.70
2023-05-19T17:06:41.124Z,5.87
2023-05-19T17:11:43.624Z,5.70
2023-05-19T17:16:45.967Z,5.75
2023-05-19T17:21:48.608Z,5.73
2023-05-19T17:26:51.126Z,6.47
2023-05-19T17:31:54.370Z,6.25
2023-05-19T17:36:56.549Z,6.18
2023-05-19T17:41:58.857Z,6.05
2023-05-19T17:47:02.420Z,5.87
2023-05-19T17:52:05.092Z,4.95
2023-05-19T17:57:12.640Z,6.15
2023-05-19T18:02:15.788Z,5.85
2023-05-19T18:07:19.520Z,6.10
2023-05-19T18:12:22.866Z,6.37
2023-05-19T18:17:25.186Z,6.10
2023-05-19T18:22:27.549Z,7.00
2023-05-19T18:27:31.941Z,7.37
2023-05-19T18:32:34.381Z,7.43
2023-05-19T18:37:36.828Z,7.90
2023-05-19T18:42:39.019Z,8.07
2023-05-19T18:47:41.460Z,7.43
2023-05-19T18:52:43.788Z,7.87
2023-05-19T18:57:46.436Z,7.25
2023-05-19T19:02:49.643Z,8.13
2023-05-19T19:07:52.498Z,7.82
2023-05-19T19:12:54.845Z,8.07
2023-05-19T19:17:57.102Z,7.53
2023-05-19T19:22:59.557Z,7.55
2023-05-19T19:28:02.583Z,8.00
2023-05-19T19:33:06.542Z,8.25
2023-05-19T19:38:09.119Z,8.38
2023-05-19T19:43:11.505Z,7.93
2023-05-19T19:48:14.116Z,8.00
2023-05-19T19:53:16.368Z,8.40
2023-05-19T19:58:18.818Z,8.32
2023-05-19T20:03:21.270Z,8.82
2023-05-19T20:08:24.506Z,9.15
2023-05-19T20:13:27.335Z,8.57
2023-05-19T20:18:30.303Z,8.90
2023-05-19T20:23:33.090Z,9.05
2023-05-19T20:28:36.193Z,8.93
2023-05-19T20:33:38.501Z,8.75
2023-05-19T20:38:40.713Z,8.75
2023-05-19T20:43:43.709Z,8.93
2023-05-19T20:48:46.320Z,8.73
2023-05-19T20:53:48.521Z,8.27
2023-05-19T20:58:50.674Z,8.73
2023-05-19T21:03:52.900Z,8.38
2023-05-19T21:08:55.104Z,8.67
2023-05-19T21:13:57.346Z,8.13
2023-05-19T21:19:01.063Z,7.80
2023-05-19T21:24:03.421Z,8.25
2023-05-19T21:29:06.294Z,11.77
2023-05-19T21:34:08.453Z,10.50
2023-05-19T21:39:13.575Z,9.55
2023-05-19T21:44:15.964Z,8.93
2023-05-19T21:49:18.134Z,8.80
2023-05-19T21:54:20.903Z,8.35
2023-05-19T21:59:24.822Z,7.90
2023-05-19T22:04:27.147Z,8.77
2023-05-19T22:09:29.535Z,8.38
2023-05-19T22:14:31.790Z,8.57
2023-05-19T22:19:33.932Z,8.65
2023-05-19T22:24:36.103Z,8.07
2023-05-19T22:29:41.479Z,8.25
2023-05-19T22:34:44.702Z,8.55
2023-05-19T22:39:46.976Z,8.90
2023-05-19T22:44:49.204Z,7.95
2023-05-19T22:49:51.658Z,8.63
2023-05-19T22:54:53.916Z,8.60
2023-05-19T22:59:56.109Z,8.52
2023-05-19T23:04:58.301Z,8.38
2023-05-19T23:10:00.571Z,9.15
2023-05-19T23:15:03.669Z,9.07
2023-05-19T23:20:06.563Z,9.40
2023-05-19T23:25:11.757Z,9.35
2023-05-19T23:30:14.495Z,8.93
2023-05-19T23:35:17.699Z,9.60
2023-05-19T23:40:44.301Z,9.80
2023-05-19T23:45:46.488Z,8.73
2023-05-19T23:50:48.767Z,9.55
2023-05-19T23:55:51.640Z,9.23
